Time;durP1;ratioP1;P1;durP2;ratioP2;P2;SDS_P1;SDS_P2;PMS_P1;PMS_P2;Temp;Humidity;BMP_temperature;BMP_pressure;BME280_temperature;BME280_humidity;BME280_pressure;Samples;Min_cycle;Max_cycle;Signal;HPM_P1;HPM_P2
2023/03/04 00:01:38;;;;;;;22.30;5.75;;;;;;;2.66;91.81;102302.50;5013232;28;20045;-71
2023/03/04 00:04:03;;;;;;;14.75;4.22;;;;;;;2.65;91.58;102305.94;5024945;28;20570;-71
2023/03/04 00:06:29;;;;;;;17.05;4.45;;;;;;;2.77;90.91;102301.16;5029358;28;20037;-71
2023/03/04 00:08:54;;;;;;;13.50;5.38;;;;;;;2.77;90.60;102294.34;5048654;28;20032;-71
2023/03/04 00:11:20;;;;;;;18.15;5.40;;;;;;;2.85;89.83;102302.50;5025622;28;20047;-71
2023/03/04 00:13:45;;;;;;;16.83;3.95;;;;;;;2.83;89.48;102299.19;5013312;28;20156;-70
2023/03/04 00:16:11;;;;;;;18.42;3.70;;;;;;;2.78;89.64;102300.28;5032885;28;20044;-71
2023/03/04 00:18:36;;;;;;;20.45;4.50;;;;;;;2.77;89.71;102296.06;5014184;28;20442;-71
2023/03/04 00:21:02;;;;;;;17.80;4.53;;;;;;;2.79;90.06;102300.22;5012623;28;20040;-71
2023/03/04 00:23:27;;;;;;;25.40;4.78;;;;;;;2.84;89.54;102297.44;5028945;28;20475;-71
2023/03/04 00:25:53;;;;;;;16.75;3.85;;;;;;;2.79;89.91;102295.09;5025171;28;20380;-70
2023/03/04 00:28:18;;;;;;;11.40;3.47;;;;;;;2.73;89.89;102292.78;5042683;28;20036;-70
2023/03/04 00:30:44;;;;;;;24.90;4.80;;;;;;;2.79;89.45;102295.09;5009215;28;20044;-71
2023/03/04 00:33:09;;;;;;;14.95;4.47;;;;;;;2.76;89.55;102292.66;5043491;28;20033;-71
2023/03/04 00:35:35;;;;;;;23.70;3.95;;;;;;;2.73;89.63;102292.78;5009582;28;20120;-70
2023/03/04 00:38:00;;;;;;;14.55;3.45;;;;;;;2.72;90.00;102280.91;5042935;28;20778;-71
2023/03/04 00:40:26;;;;;;;13.35;4.50;;;;;;;2.74;90.10;102286.78;5015070;28;20044;-71
2023/03/04 00:42:51;;;;;;;15.65;4.10;;;;;;;2.82;89.66;102284.69;5011783;28;20511;-71
2023/03/04 00:45:17;;;;;;;15.55;3.20;;;;;;;2.78;89.84;102272.94;5019668;28;20495;-70
2023/03/04 00:47:43;;;;;;;13.73;3.88;;;;;;;2.75;89.85;102273.09;5031559;23;20042;-73
2023/03/04 00:50:09;;;;;;;16.25;4.38;;;;;;;2.72;90.05;102278.34;4989566;28;20045;-73
2023/03/04 00:52:36;;;;;;;16.85;3.45;;;;;;;2.77;90.36;102278.13;5003779;28;20066;-73
2023/03/04 00:55:01;;;;;;;12.38;3.97;;;;;;;2.72;90.19;102275.78;5003580;28;20050;-73
2023/03/04 00:57:27;;;;;;;12.25;3.42;;;;;;;2.71;90.35;102282.63;4974392;28;20030;-74
2023/03/04 00:59:52;;;;;;;22.38;3.67;;;;;;;2.70;91.04;102272.47;4988096;28;20100;-73
2023/03/04 01:02:17;;;;;;;12.77;2.70;;;;;;;2.71;90.98;102284.34;4986141;28;20038;-73
2023/03/04 01:04:43;;;;;;;12.13;4.10;;;;;;;2.70;91.16;102280.97;4972521;28;20034;-73
2023/03/04 01:07:09;;;;;;;20.20;4.18;;;;;;;2.72;91.10;102274.03;4985947;28;20545;-73
2023/03/04 01:09:34;;;;;;;20.10;3.13;;;;;;;2.82;90.98;102274.44;4996375;28;20030;-73
2023/03/04 01:12:01;;;;;;;20.02;4.13;;;;;;;2.79;90.53;102273.75;4984884;28;20590;-73
2023/03/04 01:14:26;;;;;;;26.38;3.83;;;;;;;2.76;91.22;102269.59;4988070;28;20125;-73
2023/03/04 01:16:52;;;;;;;12.30;2.47;;;;;;;2.75;91.36;102264.53;4985461;28;20388;-73
2023/03/04 01:19:18;;;;;;;14.10;3.65;;;;;;;2.86;90.68;102275.13;4974294;28;20488;-73
2023/03/04 01:21:43;;;;;;;18.88;2.85;;;;;;;2.85;90.29;102258.94;4980015;28;20073;-73
2023/03/04 01:24:09;;;;;;;17.10;3.90;;;;;;;2.83;90.73;102268.44;5003543;28;20043;-73
2023/03/04 01:26:34;;;;;;;17.60;3.33;;;;;;;2.82;90.93;102266.75;5005650;28;20048;-73
2023/03/04 01:29:00;;;;;;;13.48;3.45;;;;;;;2.82;90.89;102268.50;4999476;28;20029;-73
2023/03/04 01:31:25;;;;;;;24.80;4.00;;;;;;;2.79;91.02;102258.38;4988847;28;20611;-74
2023/03/04 01:33:51;;;;;;;15.65;3.05;;;;;;;2.74;91.10;102256.03;5001602;28;20065;-73
2023/03/04 01:36:16;;;;;;;16.75;3.00;;;;;;;2.74;91.30;102256.03;4969501;28;20038;-73
2023/03/04 01:38:42;;;;;;;12.45;3.40;;;;;;;2.76;91.27;102254.25;4988619;28;20124;-73
2023/03/04 01:41:08;;;;;;;19.45;3.50;;;;;;;3.00;90.74;102254.03;4985500;28;20519;-73
2023/03/04 01:43:36;;;;;;;20.75;3.60;;;;;;;3.00;90.82;102256.59;4967061;28;20472;-73
2023/03/04 01:46:01;;;;;;;17.75;3.30;;;;;;;2.89;91.07;102249.38;4988461;28;20078;-73
2023/03/04 01:48:35;;;;;;;18.27;3.58;;;;;;;2.88;91.39;102255.41;4989390;28;20053;-73
2023/03/04 01:51:03;;;;;;;13.65;3.25;;;;;;;2.85;91.47;102245.31;5001755;28;20030;-73
2023/03/04 01:53:30;;;;;;;21.67;4.10;;;;;;;2.84;91.55;102247.03;4987920;28;20037;-73
2023/03/04 01:56:01;;;;;;;21.08;3.58;;;;;;;2.93;91.14;102241.47;4969842;28;20041;-73
2023/03/04 01:58:29;;;;;;;16.85;4.32;;;;;;;2.97;90.92;102239.59;4988823;28;20385;-73
2023/03/04 02:00:56;;;;;;;14.65;2.83;;;;;;;3.02;91.20;102237.66;4987999;28;20113;-73
2023/03/04 02:03:23;;;;;;;32.03;4.68;;;;;;;3.03;90.79;102238.50;4988030;28;20483;-73
2023/03/04 02:05:50;;;;;;;16.75;4.68;;;;;;;3.02;90.71;102240.22;4979650;28;20698;-73
2023/03/04 02:08:19;;;;;;;11.45;2.95;;;;;;;3.03;90.59;102243.63;4998701;28;20026;-73
2023/03/04 02:10:45;;;;;;;21.13;3.03;;;;;;;3.02;90.79;102236.84;4977549;28;20121;-73
2023/03/04 02:13:11;;;;;;;26.40;3.92;;;;;;;3.03;90.84;102236.78;4985385;28;20034;-73
2023/03/04 02:15:37;;;;;;;18.17;3.35;;;;;;;2.98;90.89;102240.47;4979032;28;20045;-73
2023/03/04 02:18:15;;;;;;;16.90;3.42;;;;;;;2.89;91.49;102237.41;4982914;28;20026;-73
2023/03/04 02:20:46;;;;;;;15.32;2.97;;;;;;;2.91;92.12;102229.66;4974752;28;20053;-74
2023/03/04 02:23:25;;;;;;;24.60;3.85;;;;;;;2.96;91.51;102227.72;5012581;28;20387;-73
2023/03/04 02:26:02;;;;;;;20.55;3.38;;;;;;;3.04;91.28;102228.16;5001701;28;20048;-73
2023/03/04 02:28:28;;;;;;;14.75;3.70;;;;;;;3.10;91.23;102220.19;4997174;28;20045;-73
2023/03/04 02:30:53;;;;;;;18.95;3.95;;;;;;;3.04;91.63;102220.47;4986736;28;20038;-74
2023/03/04 02:33:20;;;;;;;17.90;3.10;;;;;;;3.10;90.83;102217.63;4983289;28;20113;-73
2023/03/04 02:35:46;;;;;;;22.60;3.45;;;;;;;3.02;91.54;102224.84;4983903;28;20034;-73
2023/03/04 02:38:11;;;;;;;21.73;3.60;;;;;;;3.02;91.30;102212.03;4976893;28;20089;-74
2023/03/04 02:40:40;;;;;;;23.10;3.78;;;;;;;2.96;91.63;102216.59;4965851;28;20711;-73
2023/03/04 02:43:08;;;;;;;28.42;4.13;;;;;;;2.91;91.89;102220.22;4987382;28;20029;-73
2023/03/04 02:45:48;;;;;;;25.77;3.83;;;;;;;3.11;91.15;102215.91;4999799;28;20037;-73
2023/03/04 02:48:18;;;;;;;17.73;3.45;;;;;;;3.07;91.57;102214.38;5000437;28;20041;-73
2023/03/04 02:50:49;;;;;;;19.45;3.53;;;;;;;3.04;91.42;102205.09;4985318;28;20044;-73
2023/03/04 02:53:16;;;;;;;21.20;4.43;;;;;;;2.99;91.78;102204.47;5006995;28;20053;-73
2023/03/04 02:55:42;;;;;;;19.40;4.93;;;;;;;2.93;92.38;102203.03;4989221;28;20034;-73
2023/03/04 02:58:10;;;;;;;25.77;3.95;;;;;;;3.01;92.12;102204.41;4990088;28;20136;-73
2023/03/04 03:00:36;;;;;;;19.33;3.75;;;;;;;3.06;92.19;102197.34;4987102;28;20034;-73
2023/03/04 03:03:03;;;;;;;28.10;4.90;;;;;;;3.11;91.83;102197.97;4990273;28;20117;-73
2023/03/04 03:05:30;;;;;;;24.23;3.85;;;;;;;3.05;91.83;102196.53;5006893;28;20610;-73
2023/03/04 03:07:56;;;;;;;17.70;2.80;;;;;;;3.04;91.98;102199.16;5004064;28;20153;-73
2023/03/04 03:10:23;;;;;;;31.70;3.50;;;;;;;3.14;92.23;102207.22;4989714;28;20041;-73
2023/03/04 03:12:49;;;;;;;22.08;4.82;;;;;;;3.10;91.87;102202.25;4998522;28;20041;-74
2023/03/04 03:15:15;;;;;;;25.10;4.68;;;;;;;3.26;90.12;102204.09;5005496;28;20124;-73
2023/03/04 03:17:41;;;;;;;33.97;3.65;;;;;;;3.35;90.30;102197.66;4972386;28;20118;-73
2023/03/04 03:20:09;;;;;;;28.63;4.40;;;;;;;3.26;90.56;102189.53;4972943;28;20037;-73
2023/03/04 03:22:36;;;;;;;20.60;3.60;;;;;;;3.20;91.16;102202.66;4988592;28;20092;-73
2023/03/04 03:25:01;;;;;;;23.92;3.88;;;;;;;3.14;91.49;102195.25;4989781;28;20061;-74
2023/03/04 03:27:27;;;;;;;25.00;4.43;;;;;;;3.18;92.19;102191.63;5007970;28;20448;-73
2023/03/04 03:29:53;;;;;;;30.05;4.13;;;;;;;3.12;91.84;102189.34;4968764;28;20049;-74
2023/03/04 03:32:19;;;;;;;16.95;3.45;;;;;;;3.17;91.52;102187.41;4989149;28;20046;-73
2023/03/04 03:34:44;;;;;;;25.00;4.03;;;;;;;3.17;91.69;102194.28;4988918;28;20074;-73
2023/03/04 03:37:10;;;;;;;24.17;4.47;;;;;;;3.12;91.73;102189.34;4985994;28;20038;-73
2023/03/04 03:39:35;;;;;;;17.25;3.33;;;;;;;3.02;91.86;102183.84;4968428;28;20477;-73
2023/03/04 03:42:01;;;;;;;24.00;4.25;;;;;;;3.16;91.48;102188.31;4988599;28;20037;-73
2023/03/04 03:44:27;;;;;;;16.77;3.83;;;;;;;3.08;91.50;102188.66;5005722;28;20036;-73
2023/03/04 03:46:52;;;;;;;26.75;4.28;;;;;;;3.15;91.45;102193.53;4996979;28;20041;-73
2023/03/04 03:49:18;;;;;;;23.13;4.05;;;;;;;3.14;91.29;102184.16;4993738;28;20038;-73
2023/03/04 03:51:44;;;;;;;16.35;3.88;;;;;;;3.08;91.64;102177.59;4986374;28;20041;-73
2023/03/04 03:54:09;;;;;;;26.73;4.15;;;;;;;3.12;91.90;102182.47;4990024;28;20038;-74
2023/03/04 03:56:35;;;;;;;20.42;3.10;;;;;;;3.31;91.65;102182.44;4981690;28;20046;-73
2023/03/04 03:59:00;;;;;;;17.33;3.88;;;;;;;3.19;91.59;102179.66;4984580;28;20041;-74
2023/03/04 04:01:26;;;;;;;16.85;2.80;;;;;;;3.31;91.59;102172.19;4990788;28;20045;-74
2023/03/04 04:03:51;;;;;;;25.65;4.65;;;;;;;3.34;90.83;102168.63;4992072;28;20040;-73
2023/03/04 04:06:17;;;;;;;19.40;3.65;;;;;;;3.28;90.85;102174.91;5004292;28;20038;-73
2023/03/04 04:08:42;;;;;;;20.73;3.28;;;;;;;3.19;90.60;102175.34;4988766;28;20030;-73
2023/03/04 04:11:12;;;;;;;20.08;4.30;;;;;;;3.24;90.87;102175.97;4970019;28;20042;-73
2023/03/04 04:13:37;;;;;;;27.42;3.85;;;;;;;3.21;90.88;102175.28;5007952;28;20030;-73
2023/03/04 04:16:03;;;;;;;24.27;4.70;;;;;;;3.25;91.07;102166.53;4989046;28;20063;-73
2023/03/04 04:18:29;;;;;;;15.13;3.78;;;;;;;3.14;91.43;102177.28;4997187;28;20042;-73
2023/03/04 04:20:54;;;;;;;23.40;3.95;;;;;;;3.17;91.81;102174.59;5002219;28;20030;-73
2023/03/04 04:23:20;;;;;;;26.13;3.67;;;;;;;3.14;90.46;102167.03;4980749;28;20026;-73
2023/03/04 04:25:46;;;;;;;25.25;5.25;;;;;;;3.14;90.59;102174.72;4990193;28;20046;-73
2023/03/04 04:28:11;;;;;;;30.08;10.88;;;;;;;3.07;91.20;102165.66;4990382;28;20038;-73
2023/03/04 04:30:37;;;;;;;17.30;5.05;;;;;;;3.18;91.37;102173.66;4986646;28;20041;-73
2023/03/04 04:33:03;;;;;;;18.33;4.78;;;;;;;3.20;91.28;102169.31;5005158;28;20065;-73
2023/03/04 04:35:31;;;;;;;15.30;3.97;;;;;;;3.25;91.40;102174.22;4972384;28;20037;-74
2023/03/04 04:37:57;;;;;;;28.95;5.20;;;;;;;3.22;91.07;102179.47;5002682;28;20061;-73
2023/03/04 04:40:22;;;;;;;26.08;5.50;;;;;;;3.18;91.41;102181.34;4991392;28;20053;-74
2023/03/04 04:42:48;;;;;;;24.70;4.07;;;;;;;3.12;91.66;102177.38;4985782;28;20107;-73
2023/03/04 04:45:13;;;;;;;25.88;4.85;;;;;;;3.11;92.09;102173.16;5006944;28;20033;-73
2023/03/04 04:47:39;;;;;;;27.08;3.90;;;;;;;3.06;91.97;102175.09;4988853;28;20407;-74
2023/03/04 04:50:05;;;;;;;26.30;4.78;;;;;;;3.14;92.55;102179.84;4986265;28;20037;-73
2023/03/04 04:52:30;;;;;;;18.13;3.70;;;;;;;3.18;91.83;102181.34;5005118;28;20033;-73
2023/03/04 04:54:56;;;;;;;19.95;4.32;;;;;;;3.13;91.80;102183.34;4995816;28;20036;-73
2023/03/04 04:57:22;;;;;;;11.48;3.25;;;;;;;3.17;91.77;102189.97;5006890;28;20607;-73
2023/03/04 04:59:47;;;;;;;18.83;6.18;;;;;;;3.37;91.55;102183.88;4990338;28;20033;-73
2023/03/04 05:02:13;;;;;;;18.23;3.63;;;;;;;3.30;90.51;102179.97;4987608;28;20052;-73
2023/03/04 05:04:38;;;;;;;23.25;3.20;;;;;;;3.28;90.21;102180.03;4990629;28;20096;-73
2023/03/04 05:07:03;;;;;;;14.70;3.08;;;;;;;3.18;90.72;102186.50;5007059;28;20030;-73
2023/03/04 05:09:29;;;;;;;25.35;3.85;;;;;;;3.23;91.07;102178.59;5001432;28;20037;-73
2023/03/04 05:11:54;;;;;;;20.58;5.18;;;;;;;3.38;90.87;102182.97;4988198;28;20045;-73
2023/03/04 05:14:21;;;;;;;17.27;3.47;;;;;;;3.24;90.77;102183.66;5005965;28;20037;-74
2023/03/04 05:16:46;;;;;;;18.35;3.05;;;;;;;3.18;91.48;102178.78;4978978;28;20068;-73
2023/03/04 05:19:12;;;;;;;29.73;4.20;;;;;;;3.22;91.13;102182.91;4988587;28;20045;-73
2023/03/04 05:21:37;;;;;;;14.93;2.70;;;;;;;3.34;90.82;102178.06;4987718;28;20380;-73
2023/03/04 05:24:03;;;;;;;18.17;4.18;;;;;;;3.26;91.27;102184.41;5005020;28;20029;-74
2023/03/04 05:26:28;;;;;;;16.02;3.10;;;;;;;3.24;91.77;102182.81;4987602;28;20145;-74
2023/03/04 05:28:54;;;;;;;15.77;2.63;;;;;;;3.22;92.39;102185.47;4983184;28;20049;-74
2023/03/04 05:31:19;;;;;;;21.95;2.80;;;;;;;3.26;92.21;102183.59;5001180;28;20046;-74
2023/03/04 05:33:45;;;;;;;13.95;3.17;;;;;;;3.22;92.24;102187.19;4986013;28;20056;-73
2023/03/04 05:36:10;;;;;;;12.98;3.35;;;;;;;3.20;92.45;102188.97;5003020;28;20038;-73
2023/03/04 05:38:36;;;;;;;18.58;3.22;;;;;;;3.30;92.19;102185.91;4993794;28;20025;-73
2023/03/04 05:41:05;;;;;;;12.20;3.20;;;;;;;3.27;91.95;102187.78;4988724;28;20038;-74
2023/03/04 05:43:31;;;;;;;12.95;3.88;;;;;;;3.22;92.71;102194.88;4971254;28;20084;-73
2023/03/04 05:45:56;;;;;;;21.67;4.25;;;;;;;3.22;91.93;102193.16;4991164;28;20519;-73
2023/03/04 05:48:22;;;;;;;11.75;3.30;;;;;;;3.16;92.31;102188.31;4989355;28;20041;-73
2023/03/04 05:50:55;;;;;;;18.17;4.13;;;;;;;3.18;92.51;102191.63;4987904;28;20034;-73
2023/03/04 05:53:21;;;;;;;15.70;2.97;;;;;;;3.23;92.31;102187.09;4973866;28;20029;-74
2023/03/04 05:55:47;;;;;;;17.83;2.53;;;;;;;3.26;92.18;102189.53;4985806;28;20033;-73
2023/03/04 05:58:13;;;;;;;17.05;3.53;;;;;;;3.27;91.92;102192.91;4986492;28;20037;-73
2023/03/04 06:00:39;;;;;;;18.60;3.95;;;;;;;3.28;92.01;102187.72;4972889;28;20040;-74
2023/03/04 06:03:04;;;;;;;22.70;4.22;;;;;;;3.21;92.12;102193.22;5000390;28;20026;-73
2023/03/04 06:05:30;;;;;;;17.25;3.33;;;;;;;3.34;92.09;102188.34;4988969;28;20041;-74
2023/03/04 06:07:55;;;;;;;13.05;3.20;;;;;;;3.25;92.57;102197.28;4988615;28;20037;-74
2023/03/04 06:10:21;;;;;;;17.25;2.75;;;;;;;3.14;92.69;102197.81;4988265;28;20034;-74
2023/03/04 06:12:46;;;;;;;11.45;2.95;;;;;;;3.20;92.78;102197.53;4985702;28;20045;-73
2023/03/04 06:15:12;;;;;;;22.33;4.28;;;;;;;3.23;92.28;102196.53;5007062;28;20041;-73
2023/03/04 06:17:40;;;;;;;17.70;2.75;;;;;;;3.21;91.84;102195.78;5002934;28;20464;-73
2023/03/04 06:20:07;;;;;;;21.10;3.28;;;;;;;3.25;91.28;102197.28;4984982;28;20472;-73
2023/03/04 06:22:33;;;;;;;13.93;2.28;;;;;;;3.19;91.61;102206.09;4986766;28;20480;-73
2023/03/04 06:24:59;;;;;;;14.23;2.90;;;;;;;3.30;91.15;102201.28;4977048;28;20033;-73
2023/03/04 06:27:24;;;;;;;17.27;3.17;;;;;;;3.29;90.68;102199.63;4970069;28;20125;-73
2023/03/04 06:29:50;;;;;;;13.38;3.00;;;;;;;3.29;90.40;102202.19;4987940;28;20026;-74
2023/03/04 06:32:15;;;;;;;16.10;3.38;;;;;;;3.44;90.22;102203.16;5005525;28;20038;-74
2023/03/04 06:34:41;;;;;;;15.15;3.38;;;;;;;3.43;89.55;102211.78;4990215;28;20037;-73
2023/03/04 06:37:06;;;;;;;15.80;2.70;;;;;;;3.47;89.19;102207.34;5004582;28;20151;-73
2023/03/04 06:39:32;;;;;;;14.50;2.67;;;;;;;3.63;89.22;102207.41;4988224;28;20037;-73
2023/03/04 06:41:57;;;;;;;13.98;3.30;;;;;;;3.50;89.33;102212.31;5002363;28;20527;-74
2023/03/04 06:44:23;;;;;;;14.52;2.63;;;;;;;3.42;89.94;102217.00;4984381;28;20026;-73
2023/03/04 06:46:48;;;;;;;12.40;2.83;;;;;;;3.41;90.60;102223.00;4974128;28;20042;-73
2023/03/04 06:49:14;;;;;;;15.27;2.42;;;;;;;3.47;90.00;102227.84;5011915;23;20053;-71
2023/03/04 06:51:39;;;;;;;13.30;2.83;;;;;;;3.48;89.75;102227.78;5000218;28;20049;-71
2023/03/04 06:54:05;;;;;;;18.45;2.78;;;;;;;3.38;90.20;102223.19;5043948;28;20090;-71
2023/03/04 06:56:31;;;;;;;15.95;2.67;;;;;;;3.46;90.12;102224.44;5005300;28;20049;-71
2023/03/04 06:58:56;;;;;;;19.52;3.20;;;;;;;3.37;90.90;102224.91;5026095;28;20056;-71
2023/03/04 07:01:25;;;;;;;9.23;2.65;;;;;;;3.55;90.56;102222.34;5001203;28;20053;-71
2023/03/04 07:03:51;;;;;;;8.80;3.10;;;;;;;3.63;89.93;102223.63;5044096;28;20394;-71
2023/03/04 07:06:20;;;;;;;14.25;3.00;;;;;;;3.51;89.96;102227.63;5007642;28;20107;-71
2023/03/04 07:08:46;;;;;;;17.35;2.80;;;;;;;3.44;90.21;102225.44;5038755;28;20087;-71
2023/03/04 07:11:12;;;;;;;12.00;2.42;;;;;;;3.41;90.82;102228.13;5017354;28;20044;-71
2023/03/04 07:13:39;;;;;;;11.48;2.60;;;;;;;3.49;90.82;102226.03;5027686;28;20032;-72
2023/03/04 07:16:06;;;;;;;23.15;2.38;;;;;;;3.65;90.10;102232.06;4999029;28;20529;-71
2023/03/04 07:18:32;;;;;;;16.23;3.60;;;;;;;3.69;89.10;102231.03;5027202;28;20029;-71
2023/03/04 07:20:57;;;;;;;15.88;2.47;;;;;;;3.63;89.41;102233.88;5027290;28;20043;-71
2023/03/04 07:23:23;;;;;;;16.38;2.38;;;;;;;3.64;89.26;102235.53;5045004;28;20064;-71
2023/03/04 07:25:50;;;;;;;25.35;2.50;;;;;;;3.72;88.72;102244.59;5029009;28;20057;-71
2023/03/04 07:28:16;;;;;;;10.52;2.22;;;;;;;3.61;89.74;102242.56;5040992;28;20043;-70
2023/03/04 07:30:41;;;;;;;22.65;3.60;;;;;;;3.72;89.73;102242.03;5025172;28;20037;-71
2023/03/04 07:33:07;;;;;;;13.15;2.95;;;;;;;3.65;90.04;102247.44;5023888;28;20024;-71
2023/03/04 07:35:33;;;;;;;18.58;2.47;;;;;;;3.65;90.87;102252.59;5026062;28;20163;-71
2023/03/04 07:37:58;;;;;;;15.23;3.05;;;;;;;3.75;90.56;102241.88;5032687;28;20087;-71
2023/03/04 07:40:24;;;;;;;20.40;3.80;;;;;;;3.80;89.81;102242.47;5002298;28;20523;-70
2023/03/04 07:42:50;;;;;;;16.77;2.85;;;;;;;3.77;90.46;102242.63;5011873;28;20410;-71
2023/03/04 07:45:16;;;;;;;12.05;1.67;;;;;;;3.64;90.68;102250.13;5046084;28;20025;-71
2023/03/04 07:47:42;;;;;;;13.15;1.98;;;;;;;3.74;90.60;102251.31;5046620;28;20030;-71
2023/03/04 07:50:09;;;;;;;11.35;1.83;;;;;;;3.78;90.96;102249.44;5003909;28;20364;-71
2023/03/04 07:52:39;;;;;;;9.50;1.60;;;;;;;3.92;90.06;102247.00;5047273;28;20032;-70
2023/03/04 07:55:05;;;;;;;13.35;1.77;;;;;;;3.91;89.58;102255.59;5046242;28;20040;-71
2023/03/04 07:57:31;;;;;;;10.15;2.05;;;;;;;3.88;90.08;102253.19;5045509;28;20193;-71
2023/03/04 07:59:56;;;;;;;10.25;1.52;;;;;;;3.88;90.40;102250.63;5031201;28;20021;-71
2023/03/04 08:02:22;;;;;;;22.75;2.03;;;;;;;3.74;90.86;102264.16;4997516;28;20519;-71
2023/03/04 08:04:47;;;;;;;15.02;1.92;;;;;;;3.92;91.08;102249.56;5029108;28;20041;-71
2023/03/04 08:07:13;;;;;;;9.48;2.50;;;;;;;3.87;90.60;102256.66;5026961;28;20041;-71
2023/03/04 08:09:38;;;;;;;12.20;2.55;;;;;;;3.83;91.01;102261.13;5028534;28;20653;-71
2023/03/04 08:12:04;;;;;;;8.13;1.65;;;;;;;3.94;91.10;102260.59;5029378;28;20037;-71
2023/03/04 08:14:30;;;;;;;9.57;2.65;;;;;;;3.86;91.96;102267.81;5042342;28;20029;-71
2023/03/04 08:16:55;;;;;;;15.85;2.45;;;;;;;4.00;92.84;102265.41;5027718;28;20049;-71
2023/03/04 08:19:21;;;;;;;19.08;3.10;;;;;;;4.02;92.19;102255.91;5032060;28;20036;-71
2023/03/04 10:09:01;;;;;;;8.05;1.55;;;;;;;6.16;83.80;102233.00;5043723;28;20071;-70
2023/03/04 10:38:02;;;;;;;12.50;1.90;;;;;;;6.89;80.73;102209.59;5047398;28;20075;-70
2023/03/04 10:40:28;;;;;;;5.03;1.95;;;;;;;6.92;80.43;102214.56;4997837;28;20049;-70
2023/03/04 10:42:54;;;;;;;7.03;1.23;;;;;;;6.79;80.39;102211.94;5009952;28;20394;-70
2023/03/04 10:45:23;;;;;;;8.20;1.48;;;;;;;6.48;81.17;102222.50;5039359;28;20437;-70
2023/03/04 10:47:55;;;;;;;13.68;1.58;;;;;;;6.39;82.43;102222.16;5024778;28;20033;-70
2023/03/04 13:50:23;;;;;;;40.45;10.82;;;;;;;7.67;79.68;102035.06;5041223;28;20047;-72
2023/03/04 13:52:49;;;;;;;8.05;2.45;;;;;;;7.51;80.52;102030.94;5042797;28;20066;-73
2023/03/04 13:55:35;;;;;;;8.57;2.00;;;;;;;7.56;80.70;102030.63;5028967;28;20495;-72
2023/03/04 14:13:11;;;;;;;8.32;3.10;;;;;;;7.65;80.33;102014.50;5044076;28;20039;-73
2023/03/04 14:15:38;;;;;;;12.27;4.28;;;;;;;7.45;80.65;102015.88;5024793;28;20041;-73
2023/03/04 14:18:04;;;;;;;5.97;1.77;;;;;;;7.52;81.09;102006.78;5003853;28;1137259;-72
2023/03/04 14:20:33;;;;;;;9.38;4.07;;;;;;;7.62;80.85;102006.13;5022770;28;20124;-73
2023/03/04 14:23:02;;;;;;;11.32;5.13;;;;;;;7.43;81.29;102012.56;5011020;28;20029;-73
2023/03/04 14:25:30;;;;;;;4.95;1.90;;;;;;;7.34;82.08;102008.03;5022837;28;20037;-73
2023/03/04 14:28:05;;;;;;;5.45;1.92;;;;;;;7.43;82.37;102010.00;5020799;28;20040;-73
2023/03/04 14:30:31;;;;;;;13.50;4.40;;;;;;;7.29;82.58;102005.78;5016884;28;20450;-72
2023/03/04 14:32:59;;;;;;;7.93;2.10;;;;;;;7.20;83.91;102011.56;5043375;28;20337;-73
2023/03/04 14:35:29;;;;;;;6.20;1.70;;;;;;;7.22;84.78;102005.38;5042665;28;20056;-73
2023/03/04 14:38:01;;;;;;;4.28;1.85;;;;;;;7.17;85.39;102010.00;5032228;28;20032;-73
2023/03/04 14:40:31;;;;;;;2.92;1.67;;;;;;;7.15;86.08;102004.13;5035276;28;20060;-72
2023/03/04 14:43:04;;;;;;;6.38;3.33;;;;;;;7.07;86.90;101993.53;5026760;28;20161;-73
2023/03/04 14:45:29;;;;;;;;;;;;;;;6.95;88.76;101996.91;5028199;28;20083;-73
2023/03/04 14:48:00;;;;;;;4.38;2.70;;;;;;;6.96;88.82;101988.25;5040351;28;19917;-72
2023/03/04 14:50:26;;;;;;;5.05;2.00;;;;;;;7.04;90.34;101985.97;5042196;28;20042;-73
2023/03/04 14:53:14;;;;;;;5.47;2.35;;;;;;;7.00;91.63;101992.28;5028901;28;20061;-73
2023/03/04 14:55:53;;;;;;;12.68;5.13;;;;;;;6.83;92.67;101980.50;5043466;28;20044;-72
2023/03/04 14:58:21;;;;;;;4.75;2.38;;;;;;;6.88;93.82;101985.38;5045205;28;20100;-73
2023/03/04 15:00:48;;;;;;;8.18;3.28;;;;;;;6.94;94.14;101983.19;5027150;28;20517;-72
2023/03/04 15:03:22;;;;;;;9.68;3.80;;;;;;;6.93;94.08;101983.28;5045692;28;20040;-73
2023/03/04 15:05:51;;;;;;;16.33;5.00;;;;;;;6.98;93.75;101979.47;5044191;28;20034;-73
2023/03/04 15:08:24;;;;;;;16.73;4.82;;;;;;;7.07;93.79;101972.06;5029100;28;20515;-72
2023/03/04 15:10:57;;;;;;;5.72;2.80;;;;;;;6.92;93.29;101968.78;5023919;28;20045;-73
2023/03/04 15:13:41;;;;;;;;;;;;;;;6.79;93.75;101972.16;5053240;28;20115;-72
2023/03/04 15:16:08;;;;;;;5.05;2.20;;;;;;;6.80;94.06;101963.50;5049952;28;20506;-73
2023/03/04 15:18:34;;;;;;;5.90;1.80;;;;;;;6.85;94.24;101958.03;5045654;28;20037;-73
2023/03/04 15:21:04;;;;;;;4.43;2.30;;;;;;;6.86;93.80;101957.13;5042245;28;20055;-73
2023/03/04 15:23:31;;;;;;;11.02;4.13;;;;;;;7.05;92.18;101954.13;5031312;28;20036;-72
2023/03/04 15:26:04;;;;;;;101.93;28.27;;;;;;;6.91;92.25;101944.75;5013204;28;20120;-73
2023/03/04 15:28:34;;;;;;;52.92;16.48;;;;;;;6.86;92.63;101948.56;5046250;28;20037;-72
2023/03/04 15:31:00;;;;;;;140.60;39.28;;;;;;;6.85;92.79;101957.22;5045995;28;20045;-73
2023/03/04 15:33:26;;;;;;;112.03;33.92;;;;;;;6.89;92.22;101940.59;5050783;28;20409;-73
2023/03/04 15:36:02;;;;;;;19.50;6.30;;;;;;;6.75;92.43;101939.78;5044056;28;20037;-73
2023/03/04 15:38:29;;;;;;;93.07;27.02;;;;;;;6.72;92.96;101945.13;5038063;28;20037;-73
2023/03/04 15:40:57;;;;;;;48.10;15.65;;;;;;;6.70;92.87;101948.75;5014318;28;20035;-73
2023/03/04 15:43:23;;;;;;;11.27;5.22;;;;;;;6.71;93.23;101938.34;5015740;28;20029;-72
2023/03/04 15:45:49;;;;;;;8.30;4.20;;;;;;;6.65;94.12;101946.50;5044000;28;20608;-73
2023/03/04 15:48:17;;;;;;;8.05;3.13;;;;;;;6.60;94.42;101941.63;5012640;28;20615;-72
2023/03/04 15:51:01;;;;;;;5.68;2.88;;;;;;;6.54;95.14;101949.78;5039719;28;20029;-72
2023/03/04 15:53:38;;;;;;;4.78;2.80;;;;;;;6.55;95.86;101954.00;5027847;28;20372;-73
2023/03/04 15:56:06;;;;;;;6.30;2.88;;;;;;;6.51;96.66;101959.47;5026319;28;20094;-73
2023/03/04 15:58:32;;;;;;;4.82;2.58;;;;;;;6.53;96.81;101948.13;5025278;28;20471;-73
2023/03/04 16:00:58;;;;;;;8.52;2.78;;;;;;;6.45;98.06;101958.09;5026395;28;20064;-72
2023/03/04 16:03:23;;;;;;;7.03;1.88;;;;;;;6.33;97.65;101953.75;5041026;28;20056;-73
2023/03/04 16:05:51;;;;;;;3.85;1.65;;;;;;;6.28;98.00;101955.81;5020418;28;20048;-72
2023/03/04 16:08:20;;;;;;;9.10;2.17;;;;;;;6.32;97.25;101965.00;5040856;28;20765;-72
2023/03/04 16:10:46;;;;;;;4.35;1.27;;;;;;;6.34;97.68;101961.38;5023865;28;20048;-72
2023/03/04 16:13:14;;;;;;;7.82;2.13;;;;;;;6.29;96.45;101955.72;5014454;28;20041;-72
2023/03/04 16:15:41;;;;;;;7.30;1.60;;;;;;;6.25;97.31;101954.25;5024706;28;20033;-74
2023/03/04 16:18:09;;;;;;;3.38;1.30;;;;;;;6.26;95.88;101967.97;5006637;28;20125;-72
2023/03/04 16:20:36;;;;;;;5.30;1.50;;;;;;;6.31;95.40;101958.19;5024112;28;20116;-72
2023/03/04 16:23:02;;;;;;;9.82;1.50;;;;;;;6.23;94.79;101953.53;5024729;28;20040;-72
2023/03/04 16:25:29;;;;;;;10.60;1.75;;;;;;;6.28;94.63;101954.06;5014531;28;20032;-72
2023/03/04 16:28:03;;;;;;;6.60;1.67;;;;;;;6.23;94.28;101950.94;5047186;28;20083;-72
2023/03/04 16:30:30;;;;;;;8.43;1.52;;;;;;;6.26;93.91;101955.09;5043570;28;20116;-72
2023/03/04 16:32:55;;;;;;;8.15;1.83;;;;;;;6.23;93.88;101956.94;5038484;28;20111;-72
2023/03/04 16:35:24;;;;;;;18.15;3.10;;;;;;;6.20;94.29;101954.56;5028731;28;20040;-72
2023/03/04 16:37:51;;;;;;;7.75;1.90;;;;;;;6.16;94.56;101949.69;5028516;28;20029;-72
2023/03/04 16:40:19;;;;;;;6.85;1.58;;;;;;;6.09;95.13;101951.03;5048844;28;20120;-72
2023/03/04 16:42:45;;;;;;;10.80;1.73;;;;;;;6.04;95.71;101959.84;5020650;28;20028;-73
2023/03/04 16:45:25;;;;;;;7.47;2.25;;;;;;;6.09;95.09;101956.19;5042052;28;20521;-72
2023/03/04 16:47:52;;;;;;;8.52;2.80;;;;;;;6.03;95.15;101955.63;5042003;28;20036;-72
2023/03/04 16:50:20;;;;;;;11.60;1.90;;;;;;;6.03;96.02;101960.78;5042477;28;20723;-72
2023/03/04 16:52:49;;;;;;;5.45;1.60;;;;;;;6.04;95.88;101957.28;5025965;28;20452;-73
2023/03/04 16:55:20;;;;;;;10.25;2.60;;;;;;;5.98;96.05;101956.84;5028743;28;20048;-72